Time;durP1;ratioP1;P1;durP2;ratioP2;P2;SDS_P1;SDS_P2;PMS_P1;PMS_P2;Temp;Humidity;BMP_temperature;BMP_pressure;BME280_temperature;BME280_humidity;BME280_pressure;Samples;Min_cycle;Max_cycle;Signal;HPM_P1;HPM_P2
2023/06/29 00:02:24;;;;;;;98.00;64.28;;;21.10;75.50;;;;;;4967510;28;89958;-81
2023/06/29 00:04:52;;;;;;;99.28;65.40;;;21.10;75.30;;;;;;4989074;28;92517;-82
2023/06/29 00:07:18;;;;;;;101.15;65.03;;;21.10;75.60;;;;;;4976555;28;94090;-81
2023/06/29 00:09:43;;;;;;;99.50;64.90;;;21.10;75.90;;;;;;4968166;28;91345;-82
2023/06/29 00:12:09;;;;;;;98.68;64.72;;;21.10;75.70;;;;;;4967015;28;89465;-83
2023/06/29 00:14:34;;;;;;;98.88;64.65;;;21.00;75.80;;;;;;4978296;28;91876;-82
2023/06/29 00:17:00;;;;;;;99.82;65.10;;;21.00;75.40;;;;;;4990116;28;90060;-81
2023/06/29 00:19:26;;;;;;;100.18;65.18;;;21.00;75.60;;;;;;4982672;28;89322;-82
2023/06/29 00:21:51;;;;;;;100.38;65.60;;;21.00;75.70;;;;;;4973262;28;89008;-82
2023/06/29 00:24:17;;;;;;;99.75;65.32;;;21.00;75.70;;;;;;4990824;28;90246;-82
2023/06/29 00:26:42;;;;;;;98.45;64.50;;;21.00;75.50;;;;;;4986992;28;91796;-82
2023/06/29 00:29:08;;;;;;;98.30;64.40;;;21.00;75.60;;;;;;4972859;28;90875;-82
2023/06/29 00:31:33;;;;;;;99.10;65.55;;;21.00;75.70;;;;;;4972699;28;90605;-82
2023/06/29 00:33:59;;;;;;;99.22;64.75;;;21.00;75.80;;;;;;4974182;28;94193;-83
2023/06/29 00:36:24;;;;;;;99.43;64.72;;;21.00;75.50;;;;;;4976987;28;91296;-82
2023/06/29 00:38:50;;;;;;;98.10;63.90;;;21.00;75.50;;;;;;4969387;28;89589;-81
2023/06/29 00:41:16;;;;;;;97.85;63.63;;;21.00;75.90;;;;;;4968628;28;89638;-81
2023/06/29 00:43:42;;;;;;;98.82;63.92;;;21.00;76.60;;;;;;4972921;28;94432;-81
2023/06/29 00:46:09;;;;;;;98.07;64.55;;;21.00;76.40;;;;;;4999067;28;89718;-81
2023/06/29 00:48:39;;;;;;;97.97;64.32;;;21.00;76.50;;;;;;4984324;28;89305;-81
2023/06/29 00:51:05;;;;;;;98.63;64.88;;;20.90;75.80;;;;;;4970901;28;90622;-81
2023/06/29 00:53:31;;;;;;;98.72;64.70;;;20.90;75.70;;;;;;4971339;28;93882;-81
2023/06/29 00:55:58;;;;;;;96.90;64.35;;;20.90;75.60;;;;;;4975991;28;94341;-82
2023/06/29 00:58:25;;;;;;;98.38;64.40;;;20.90;75.60;;;;;;4977042;28;91015;-81
2023/06/29 01:00:50;;;;;;;100.13;64.60;;;20.90;75.70;;;;;;4980521;28;89662;-83
2023/06/29 01:03:16;;;;;;;100.00;65.00;;;20.90;75.70;;;;;;4966062;28;93577;-82
2023/06/29 01:05:45;;;;;;;99.80;64.88;;;20.90;75.90;;;;;;4982689;28;89557;-82
2023/06/29 01:08:21;;;;;;;100.40;64.95;;;20.90;75.70;;;;;;4991279;28;89465;-82
2023/06/29 01:10:48;;;;;;;100.68;64.30;;;20.90;75.90;;;;;;4980070;28;88742;-82
2023/06/29 01:13:17;;;;;;;97.90;63.53;;;20.90;75.90;;;;;;4981292;28;90829;-83
2023/06/29 01:15:44;;;;;;;97.88;64.38;;;20.90;75.80;;;;;;4983644;28;90718;-82
2023/06/29 01:18:12;;;;;;;98.90;65.28;;;20.90;75.60;;;;;;4980814;28;91750;-82
2023/06/29 01:20:39;;;;;;;99.80;64.03;;;20.90;76.20;;;;;;4982357;28;90746;-82
2023/06/29 01:23:10;;;;;;;99.38;63.47;;;20.90;76.20;;;;;;4965318;28;92962;-83
2023/06/29 01:25:37;;;;;;;97.78;63.63;;;20.90;76.10;;;;;;4969873;28;93425;-82
2023/06/29 01:28:09;;;;;;;97.75;63.83;;;20.90;75.90;;;;;;4967778;28;91015;-82
2023/06/29 01:30:45;;;;;;;97.63;64.07;;;20.90;75.90;;;;;;4984388;28;89583;-82
2023/06/29 01:33:13;;;;;;;98.50;64.18;;;20.90;76.00;;;;;;4982710;28;90068;-83
2023/06/29 01:35:38;;;;;;;97.07;63.80;;;20.90;76.00;;;;;;4978916;28;88766;-83
2023/06/29 01:38:27;;;;;;;96.50;64.00;;;20.80;76.00;;;;;;4963195;28;89920;-84
2023/06/29 01:40:56;;;;;;;97.95;64.43;;;20.80;75.60;;;;;;4969994;28;89256;-83
2023/06/29 01:43:24;;;;;;;96.88;63.55;;;20.80;75.80;;;;;;4963551;28;92564;-83
2023/06/29 01:45:51;;;;;;;99.78;63.58;;;20.80;76.30;;;;;;4979387;28;89846;-82
2023/06/29 01:48:17;;;;;;;98.53;64.15;;;20.80;75.90;;;;;;4970877;28;91922;-82
2023/06/29 01:50:44;;;;;;;96.72;63.42;;;20.80;75.90;;;;;;4963859;28;89884;-83
2023/06/29 01:53:09;;;;;;;98.40;64.63;;;20.80;75.90;;;;;;4972700;28;93764;-82
2023/06/29 01:55:35;;;;;;;97.80;64.15;;;20.80;75.70;;;;;;4958109;28;94021;-84
2023/06/29 01:58:00;;;;;;;98.25;64.10;;;20.80;76.20;;;;;;4987583;28;89856;-82
2023/06/29 02:00:26;;;;;;;96.35;63.67;;;20.80;76.00;;;;;;4982767;28;88665;-83
2023/06/29 02:02:52;;;;;;;99.25;65.13;;;20.80;76.10;;;;;;4968114;28;92791;-83
2023/06/29 02:05:19;;;;;;;94.32;62.83;;;20.80;76.00;;;;;;4968039;28;92733;-82
2023/06/29 02:07:45;;;;;;;98.68;65.00;;;20.80;76.10;;;;;;4969694;28;90299;-83
2023/06/29 02:10:11;;;;;;;97.65;64.07;;;20.80;75.80;;;;;;4970721;28;91114;-83
2023/06/29 02:12:40;;;;;;;97.82;63.88;;;20.80;75.90;;;;;;4966038;28;92991;-83
2023/06/29 02:15:06;;;;;;;99.82;64.68;;;20.80;76.00;;;;;;4985916;28;91516;-83
2023/06/29 02:17:32;;;;;;;98.40;64.38;;;20.80;75.90;;;;;;4967787;28;90685;-81
2023/06/29 02:19:57;;;;;;;97.28;63.58;;;20.80;75.80;;;;;;4973195;28;89204;-81
2023/06/29 02:22:23;;;;;;;98.65;63.63;;;20.80;75.80;;;;;;4983702;28;92715;-82
2023/06/29 02:24:48;;;;;;;99.97;64.43;;;20.80;76.10;;;;;;4990600;28;89563;-81
2023/06/29 02:27:14;;;;;;;98.93;64.35;;;20.80;76.20;;;;;;4971872;28;90146;-81
2023/06/29 02:29:39;;;;;;;98.32;63.83;;;20.80;75.90;;;;;;4988555;28;89659;-84
2023/06/29 02:32:05;;;;;;;96.35;63.13;;;20.80;76.70;;;;;;4967788;28;93364;-81
2023/06/29 02:34:31;;;;;;;98.00;63.90;;;20.80;76.00;;;;;;4988588;28;91741;-82
2023/06/29 02:36:57;;;;;;;98.25;63.65;;;20.70;75.80;;;;;;4975988;28;89414;-81
2023/06/29 02:39:22;;;;;;;97.97;64.18;;;20.80;76.00;;;;;;4971289;28;90384;-83
2023/06/29 02:41:48;;;;;;;97.68;63.70;;;20.80;76.00;;;;;;4974711;28;92910;-81
2023/06/29 02:44:13;;;;;;;97.05;64.18;;;20.70;76.00;;;;;;4974985;28;92668;-81
2023/06/29 02:46:40;;;;;;;98.93;65.00;;;20.80;75.80;;;;;;4984027;28;90596;-82
2023/06/29 02:49:05;;;;;;;98.22;64.00;;;20.70;75.80;;;;;;4991988;28;88603;-81
2023/06/29 02:51:31;;;;;;;99.80;64.70;;;20.70;76.10;;;;;;4987915;28;90491;-81
2023/06/29 02:53:57;;;;;;;98.05;65.28;;;20.70;76.10;;;;;;4986284;28;90043;-81
2023/06/29 02:56:22;;;;;;;99.93;64.88;;;20.70;76.20;;;;;;4989958;28;90210;-82
2023/06/29 02:58:48;;;;;;;100.55;64.15;;;20.70;76.00;;;;;;4963577;28;89567;-82
2023/06/29 03:01:13;;;;;;;97.72;63.85;;;20.70;76.10;;;;;;4968002;28;92957;-81
2023/06/29 03:03:39;;;;;;;99.18;64.28;;;20.70;76.10;;;;;;4969912;28;92260;-82
2023/06/29 03:06:05;;;;;;;97.80;63.88;;;20.70;75.70;;;;;;4972837;28;89365;-83
2023/06/29 03:08:30;;;;;;;96.78;63.65;;;20.70;76.20;;;;;;4969332;28;89510;-82
2023/06/29 03:10:56;;;;;;;98.40;64.45;;;20.70;75.90;;;;;;4967361;28;92317;-82
2023/06/29 03:13:21;;;;;;;98.25;64.18;;;20.70;76.20;;;;;;4978082;28;93396;-82
2023/06/29 03:15:47;;;;;;;97.30;64.75;;;20.70;77.50;;;;;;4985368;28;89442;-81
2023/06/29 03:18:13;;;;;;;97.75;64.63;;;20.70;76.00;;;;;;4970614;28;89532;-81
2023/06/29 03:20:38;;;;;;;98.20;64.28;;;20.70;76.30;;;;;;4970465;28;94038;-82
2023/06/29 03:23:04;;;;;;;98.40;63.35;;;20.70;76.10;;;;;;4990266;28;89772;-81
2023/06/29 03:25:29;;;;;;;98.28;64.47;;;20.70;76.10;;;;;;4984732;28;89179;-83
2023/06/29 03:27:56;;;;;;;95.93;63.45;;;20.70;76.10;;;;;;4972533;28;90505;-82
2023/06/29 03:30:21;;;;;;;100.15;65.68;;;20.70;76.30;;;;;;4965694;28;93506;-82
2023/06/29 03:32:47;;;;;;;97.45;64.57;;;20.70;76.00;;;;;;4984244;28;90160;-81
2023/06/29 03:35:13;;;;;;;98.82;65.00;;;20.70;76.40;;;;;;4966994;28;89951;-82
2023/06/29 03:37:38;;;;;;;97.85;63.50;;;20.70;76.10;;;;;;4983169;28;88838;-83
2023/06/29 03:40:04;;;;;;;99.00;64.80;;;20.70;76.20;;;;;;4969077;28;93009;-82
2023/06/29 03:42:30;;;;;;;96.78;63.55;;;20.70;76.30;;;;;;4971392;28;94226;-82
2023/06/29 03:44:56;;;;;;;98.00;64.47;;;20.70;75.90;;;;;;4970092;28;91378;-82
2023/06/29 03:47:21;;;;;;;101.10;65.15;;;20.70;76.80;;;;;;4974218;28;90060;-82
2023/06/29 03:49:47;;;;;;;97.32;64.13;;;20.70;76.40;;;;;;4973859;28;92594;-81
2023/06/29 03:52:12;;;;;;;99.72;64.30;;;20.70;76.30;;;;;;4985062;28;90941;-81
2023/06/29 03:54:38;;;;;;;97.88;64.53;;;20.60;76.40;;;;;;4973701;28;89276;-83
2023/06/29 03:57:04;;;;;;;97.53;64.80;;;20.60;76.30;;;;;;4973321;28;91305;-81
2023/06/29 03:59:30;;;;;;;99.28;64.82;;;20.60;76.00;;;;;;4987790;28;91696;-81
2023/06/29 04:01:55;;;;;;;99.15;63.95;;;20.60;75.90;;;;;;4988597;28;89878;-81
2023/06/29 04:04:21;;;;;;;98.22;64.95;;;20.60;76.10;;;;;;4966996;28;89780;-82
2023/06/29 04:06:46;;;;;;;98.30;64.50;;;20.60;75.90;;;;;;4966917;28;89878;-81
2023/06/29 04:09:12;;;;;;;96.57;64.70;;;20.60;75.90;;;;;;4966552;28;93983;-81
2023/06/29 04:11:38;;;;;;;96.55;62.78;;;20.60;76.20;;;;;;4968793;28;94636;-81
2023/06/29 04:14:03;;;;;;;100.47;64.85;;;20.60;77.90;;;;;;4967260;28;89498;-81
2023/06/29 04:16:29;;;;;;;98.40;64.53;;;20.60;76.00;;;;;;4969976;28;89531;-81
2023/06/29 04:18:54;;;;;;;99.10;65.25;;;20.60;76.60;;;;;;4987826;28;92711;-81
2023/06/29 04:21:20;;;;;;;98.80;64.78;;;20.60;76.40;;;;;;4967232;28;93879;-81
2023/06/29 04:23:46;;;;;;;99.72;65.22;;;20.60;76.20;;;;;;4986490;28;89508;-81
2023/06/29 04:26:13;;;;;;;99.80;65.82;;;20.60;76.00;;;;;;4983195;28;88356;-81
2023/06/29 04:28:38;;;;;;;97.60;64.22;;;20.60;76.30;;;;;;4973947;28;93514;-81
2023/06/29 04:31:04;;;;;;;98.97;64.57;;;20.60;76.10;;;;;;4963957;28;91140;-81
2023/06/29 04:33:30;;;;;;;99.55;64.75;;;20.60;76.30;;;;;;4960890;28;90818;-81
2023/06/29 04:35:56;;;;;;;98.00;65.15;;;20.60;76.70;;;;;;4966335;28;90367;-82
2023/06/29 04:38:27;;;;;;;98.65;65.00;;;20.60;76.00;;;;;;4961197;28;93697;-83
2023/06/29 04:41:05;;;;;;;98.60;65.13;;;20.60;75.80;;;;;;4986885;28;90494;-83
2023/06/29 04:43:31;;;;;;;100.25;65.30;;;20.60;76.10;;;;;;4969159;28;89659;-81
2023/06/29 04:45:59;;;;;;;101.10;66.13;;;20.60;76.20;;;;;;4984626;28;89522;-82
2023/06/29 04:48:28;;;;;;;98.65;64.78;;;20.60;76.00;;;;;;4986149;28;89622;-82
2023/06/29 04:51:02;;;;;;;98.00;65.18;;;20.60;76.00;;;;;;4982689;28;90078;-82
2023/06/29 04:53:28;;;;;;;98.95;65.43;;;20.60;76.80;;;;;;4963703;28;90919;-82
2023/06/29 04:55:55;;;;;;;99.40;64.82;;;20.70;76.20;;;;;;4979933;28;89409;-82
2023/06/29 04:58:20;;;;;;;99.63;64.85;;;20.70;75.80;;;;;;4984793;28;90797;-82
2023/06/29 05:00:46;;;;;;;98.18;64.45;;;20.70;76.00;;;;;;4967353;28;92538;-81
2023/06/29 05:03:11;;;;;;;99.65;65.88;;;20.70;76.20;;;;;;4983641;28;89809;-81
2023/06/29 05:05:37;;;;;;;97.45;63.92;;;20.70;75.70;;;;;;4968219;28;89628;-85
2023/06/29 05:08:02;;;;;;;100.20;65.25;;;20.70;76.40;;;;;;4972086;28;94116;-82
2023/06/29 05:10:28;;;;;;;99.45;64.78;;;20.70;75.70;;;;;;4980558;28;90684;-81
2023/06/29 05:12:54;;;;;;;100.53;65.68;;;20.70;75.70;;;;;;4994240;28;90954;-82
2023/06/29 05:15:19;;;;;;;98.53;66.05;;;20.70;75.80;;;;;;4995676;28;88517;-83
2023/06/29 05:17:45;;;;;;;98.78;64.03;;;20.70;75.80;;;;;;4990750;28;91303;-82
2023/06/29 05:20:11;;;;;;;101.72;65.85;;;20.70;76.20;;;;;;4970903;28;92581;-81
2023/06/29 05:22:36;;;;;;;96.57;62.88;;;20.70;75.60;;;;;;4969387;28;90550;-83
2023/06/29 05:25:02;;;;;;;99.88;65.22;;;20.70;79.60;;;;;;4978662;28;89290;-83
2023/06/29 05:27:28;;;;;;;103.43;66.93;;;20.70;76.20;;;;;;4976705;28;93025;-83
2023/06/29 05:29:53;;;;;;;101.40;65.32;;;20.70;75.60;;;;;;4978019;28;89977;-82
2023/06/29 05:32:19;;;;;;;101.85;67.18;;;20.70;75.90;;;;;;4966634;28;89366;-82
2023/06/29 05:34:45;;;;;;;102.22;66.10;;;20.70;77.30;;;;;;4987881;28;89244;-81
2023/06/29 05:37:10;;;;;;;106.38;67.57;;;20.80;75.90;;;;;;4973760;28;93131;-82
2023/06/29 05:39:36;;;;;;;107.18;67.90;;;20.80;76.50;;;;;;4968754;28;91264;-83
2023/06/29 05:42:01;;;;;;;103.00;66.75;;;20.80;75.90;;;;;;4974312;28;89596;-82
2023/06/29 05:44:27;;;;;;;103.70;68.15;;;20.80;75.80;;;;;;4969255;28;89949;-83
2023/06/29 05:46:52;;;;;;;103.43;67.28;;;20.80;75.80;;;;;;4973489;28;94183;-83
2023/06/29 05:49:18;;;;;;;106.78;68.13;;;20.80;75.20;;;;;;4976538;28;93419;-82
2023/06/29 05:51:44;;;;;;;103.63;66.35;;;20.80;76.00;;;;;;4984485;28;90381;-82
2023/06/29 05:54:10;;;;;;;102.07;66.72;;;20.90;74.90;;;;;;4971316;28;89679;-82
2023/06/29 05:56:35;;;;;;;107.78;68.20;;;20.90;75.30;;;;;;4991741;28;90246;-82
2023/06/29 05:59:02;;;;;;;103.20;67.38;;;20.90;76.20;;;;;;4972516;28;92730;-82
2023/06/29 06:01:28;;;;;;;102.97;67.53;;;20.90;75.10;;;;;;4970213;28;90628;-82
2023/06/29 06:03:54;;;;;;;104.55;67.68;;;20.90;75.20;;;;;;4967453;28;88472;-82
2023/06/29 06:06:21;;;;;;;105.43;67.15;;;20.90;75.40;;;;;;4988952;28;90723;-83
2023/06/29 06:08:46;;;;;;;103.43;66.93;;;20.90;75.00;;;;;;4965837;28;92827;-81
2023/06/29 06:11:12;;;;;;;107.13;67.05;;;21.00;74.80;;;;;;4968093;28;90631;-82
2023/06/29 06:13:38;;;;;;;103.05;66.47;;;21.00;78.00;;;;;;4989558;28;89770;-82
2023/06/29 06:16:04;;;;;;;103.45;66.80;;;21.00;75.20;;;;;;4974893;28;89853;-82
2023/06/29 06:18:30;;;;;;;104.93;66.70;;;21.00;74.80;;;;;;4956715;28;93548;-82
2023/06/29 06:20:56;;;;;;;103.75;66.07;;;21.00;75.00;;;;;;4977750;28;89625;-82
2023/06/29 06:23:22;;;;;;;104.43;67.05;;;21.00;74.50;;;;;;4966715;28;89566;-83
2023/06/29 06:25:47;;;;;;;100.75;66.18;;;21.10;76.90;;;;;;4969159;28;94364;-82
2023/06/29 06:28:13;;;;;;;102.10;66.32;;;21.10;74.70;;;;;;4980476;28;89548;-82
2023/06/29 06:30:38;;;;;;;101.65;66.68;;;21.10;74.20;;;;;;4981285;28;89495;-82
2023/06/29 06:33:04;;;;;;;113.28;74.18;;;21.20;74.70;;;;;;4963180;28;89790;-83
2023/06/29 06:35:30;;;;;;;110.57;71.28;;;21.20;78.90;;;;;;4969136;28;94153;-83
2023/06/29 06:37:55;;;;;;;121.10;75.45;;;21.40;79.20;;;;;;4983058;28;91661;-83
2023/06/29 06:40:21;;;;;;;120.35;76.00;;;21.70;78.20;;;;;;4961394;28;90818;-82
2023/06/29 06:42:47;;;;;;;116.93;73.85;;;21.80;77.80;;;;;;4981425;28;90071;-82
2023/06/29 06:45:13;;;;;;;113.45;74.32;;;21.90;76.80;;;;;;4985762;28;90198;-83
2023/06/29 06:47:39;;;;;;;120.18;75.38;;;22.00;76.40;;;;;;4981585;28;90204;-81
2023/06/29 06:50:06;;;;;;;118.80;75.35;;;22.00;75.60;;;;;;4967894;28;89475;-82
2023/06/29 06:52:31;;;;;;;114.80;76.13;;;22.10;75.90;;;;;;4972435;28;88470;-82
2023/06/29 06:54:57;;;;;;;117.15;75.70;;;22.00;75.70;;;;;;4964378;28;92757;-82
2023/06/29 06:57:23;;;;;;;118.15;75.78;;;22.00;76.10;;;;;;4961117;28;92747;-82
2023/06/29 06:59:48;;;;;;;116.80;75.05;;;22.10;76.10;;;;;;4964604;28;91149;-83
2023/06/29 07:02:14;;;;;;;112.15;72.32;;;22.20;76.90;;;;;;4958980;28;89093;-82
2023/06/29 07:04:40;;;;;;;114.90;73.43;;;22.10;75.70;;;;;;4983868;28;90618;-82
2023/06/29 07:07:06;;;;;;;119.63;77.47;;;22.10;76.70;;;;;;4986114;28;89346;-81
2023/06/29 07:09:32;;;;;;;116.03;75.10;;;22.20;76.10;;;;;;4964568;28;90695;-82
2023/06/29 07:11:58;;;;;;;117.72;75.68;;;22.30;75.20;;;;;;4963128;28;89863;-81
2023/06/29 07:14:24;;;;;;;112.55;73.03;;;22.40;75.20;;;;;;4961915;28;92794;-84
2023/06/29 07:16:49;;;;;;;118.70;76.57;;;22.50;74.40;;;;;;4976761;28;93551;-84
2023/06/29 07:19:16;;;;;;;114.93;75.03;;;22.60;74.70;;;;;;5004505;28;88887;-84
2023/06/29 07:21:42;;;;;;;119.95;77.20;;;22.70;74.20;;;;;;5003153;28;89079;-84
2023/06/29 07:24:09;;;;;;;111.75;73.57;;;22.80;74.30;;;;;;4974104;28;93630;-83
2023/06/29 07:26:36;;;;;;;117.72;77.03;;;22.70;72.00;;;;;;4970233;28;93808;-82
2023/06/29 07:29:03;;;;;;;120.63;75.63;;;22.60;73.40;;;;;;4964871;28;89471;-81
2023/06/29 07:31:29;;;;;;;121.68;76.95;;;22.70;72.60;;;;;;4983930;28;89255;-81
2023/06/29 07:33:55;;;;;;;117.22;75.82;;;22.60;73.40;;;;;;4985728;28;93245;-81
2023/06/29 07:36:23;;;;;;;115.03;75.82;;;22.70;73.70;;;;;;4961455;28;92362;-82
2023/06/29 07:38:49;;;;;;;116.82;76.30;;;22.80;74.40;;;;;;4957956;28;89935;-82
2023/06/29 07:41:16;;;;;;;120.63;77.40;;;22.90;73.30;;;;;;4964774;28;88572;-82
2023/06/29 07:43:46;;;;;;;114.68;75.13;;;23.00;73.50;;;;;;4967510;28;92959;-83
2023/06/29 07:46:11;;;;;;;116.67;76.87;;;23.00;72.90;;;;;;4954873;28;92966;-84
2023/06/29 07:48:37;;;;;;;118.72;76.95;;;23.10;72.00;;;;;;4964787;28;90971;-83
2023/06/29 07:51:03;;;;;;;115.80;74.55;;;23.10;71.80;;;;;;4966195;28;89056;-82
2023/06/29 07:53:29;;;;;;;116.93;75.72;;;23.10;73.10;;;;;;4979248;28;90753;-83
2023/06/29 07:55:55;;;;;;;116.13;76.05;;;23.10;72.20;;;;;;4980538;28;89379;-81
2023/06/29 07:58:21;;;;;;;122.45;77.32;;;23.20;73.40;;;;;;4968379;28;90023;-84
2023/06/29 08:00:46;;;;;;;118.60;75.18;;;23.30;72.40;;;;;;4982264;28;90093;-82
2023/06/29 08:03:12;;;;;;;117.03;75.60;;;23.30;71.70;;;;;;4965698;28;92088;-84
2023/06/29 08:05:37;;;;;;;118.63;76.00;;;23.40;71.20;;;;;;4983738;28;89253;-82
2023/06/29 08:08:03;;;;;;;121.95;77.45;;;23.40;71.60;;;;;;4966674;28;89540;-82
2023/06/29 08:10:29;;;;;;;120.68;77.47;;;23.40;71.90;;;;;;4978995;28;89371;-82
2023/06/29 08:12:54;;;;;;;121.68;77.43;;;23.40;71.50;;;;;;4978210;28;91655;-82
2023/06/29 08:15:21;;;;;;;119.82;77.43;;;23.50;71.70;;;;;;4979534;28;90868;-81
2023/06/29 08:17:46;;;;;;;111.57;73.07;;;23.60;71.10;;;;;;4962660;28;89758;-81
2023/06/29 08:20:12;;;;;;;115.43;74.57;;;23.60;71.10;;;;;;4960876;28;90595;-82
2023/06/29 08:22:39;;;;;;;115.72;76.13;;;23.60;70.70;;;;;;4958835;28;95096;-84
2023/06/29 08:25:05;;;;;;;118.72;77.20;;;23.60;71.10;;;;;;4965537;28;91624;-84
2023/06/29 08:27:31;;;;;;;116.57;74.32;;;23.70;70.30;;;;;;4963658;28;89668;-85
2023/06/29 08:29:56;;;;;;;121.43;77.72;;;23.60;70.10;;;;;;4980284;28;89783;-84
2023/06/29 08:32:22;;;;;;;123.85;78.63;;;23.60;71.00;;;;;;4963813;28;91942;-86
2023/06/29 08:34:48;;;;;;;113.40;73.93;;;23.50;71.50;;;;;;4962367;28;92858;-85
2023/06/29 08:37:13;;;;;;;123.22;78.45;;;23.60;70.80;;;;;;4961642;28;90789;-84
2023/06/29 08:39:39;;;;;;;124.15;78.35;;;23.60;70.90;;;;;;4961780;28;90406;-84
2023/06/29 08:42:05;;;;;;;121.40;77.75;;;23.70;71.80;;;;;;4962210;28;93102;-84
2023/06/29 08:44:31;;;;;;;117.43;77.45;;;23.70;71.30;;;;;;4978766;28;91870;-84
2023/06/29 08:47:00;;;;;;;123.63;78.45;;;23.60;71.50;;;;;;4979859;28;89461;-84
2023/06/29 08:49:27;;;;;;;123.57;79.07;;;23.60;71.30;;;;;;4982274;28;89430;-84
2023/06/29 08:51:58;;;;;;;122.03;77.93;;;23.60;70.70;;;;;;4982937;28;91087;-84
2023/06/29 08:54:26;;;;;;;117.70;77.57;;;23.60;71.30;;;;;;4985725;28;90026;-84
2023/06/29 08:56:52;;;;;;;124.25;78.70;;;23.60;71.20;;;;;;4987483;28;89349;-84
2023/06/29 08:59:18;;;;;;;116.13;75.82;;;23.60;72.10;;;;;;4985744;28;89993;-84
2023/06/29 09:01:45;;;;;;;116.80;78.35;;;23.80;71.30;;;;;;4962409;28;93422;-84
2023/06/29 09:04:11;;;;;;;117.00;77.30;;;23.80;69.10;;;;;;4968003;28;93403;-84
2023/06/29 09:06:40;;;;;;;121.00;78.20;;;23.80;68.80;;;;;;4978664;28;89460;-86
2023/06/29 09:09:06;;;;;;;119.38;76.22;;;23.90;70.80;;;;;;4962162;28;89495;-85
2023/06/29 09:11:34;;;;;;;122.22;80.10;;;23.80;67.60;;;;;;4965812;28;92309;-85
2023/06/29 09:14:07;;;;;;;122.30;79.97;;;23.90;69.50;;;;;;4985657;28;89969;-85
2023/06/29 09:16:36;;;;;;;122.25;79.38;;;23.90;70.10;;;;;;4971304;28;91743;-85
2023/06/29 09:19:05;;;;;;;121.10;79.45;;;23.90;69.90;;;;;;4972691;28;89636;-85
2023/06/29 09:21:31;;;;;;;120.80;79.07;;;23.90;70.00;;;;;;4987823;28;92624;-84
2023/06/29 09:23:57;;;;;;;124.28;78.40;;;23.90;68.70;;;;;;5021153;28;89599;-84
2023/06/29 09:26:26;;;;;;;121.07;77.40;;;23.90;68.90;;;;;;5002165;28;90326;-86
2023/06/29 09:29:03;;;;;;;123.38;80.47;;;23.90;67.40;;;;;;4978067;28;89823;-84
2023/06/29 09:31:32;;;;;;;118.63;77.32;;;24.10;66.20;;;;;;4974851;28;94894;-85
2023/06/29 09:34:19;;;;;;;124.18;80.93;;;24.10;65.70;;;;;;4973125;28;93913;-85
2023/06/29 09:36:46;;;;;;;119.97;79.43;;;24.10;65.30;;;;;;4978231;28;90233;-85
2023/06/29 09:39:12;;;;;;;120.97;78.97;;;24.10;67.10;;;;;;4985808;28;89371;-85
2023/06/29 09:42:05;;;;;;;119.00;78.60;;;24.00;66.50;;;;;;4986445;28;91523;-85
2023/06/29 09:44:31;;;;;;;120.85;79.60;;;24.00;67.40;;;;;;4964757;28;94006;-86
2023/06/29 09:47:06;;;;;;;123.20;81.30;;;24.00;67.60;;;;;;4962659;28;90625;-85
2023/06/29 09:49:49;;;;;;;124.38;81.10;;;24.10;67.80;;;;;;4964729;28;89420;-85
2023/06/29 09:52:16;;;;;;;120.47;80.28;;;24.00;67.80;;;;;;4968310;28;94595;-86
2023/06/29 09:54:42;;;;;;;130.93;80.75;;;24.10;68.20;;;;;;4970032;28;93478;-84
2023/06/29 09:57:11;;;;;;;117.25;76.07;;;24.00;66.70;;;;;;4966750;28;89340;-84
2023/06/29 09:59:41;;;;;;;120.97;80.40;;;24.00;66.90;;;;;;4989332;28;89292;-84
2023/06/29 10:02:10;;;;;;;123.53;79.67;;;23.90;65.90;;;;;;4974019;28;92396;-83
2023/06/29 10:04:37;;;;;;;122.20;77.20;;;24.00;66.60;;;;;;4969582;28;92842;-84
2023/06/29 10:07:14;;;;;;;120.20;78.45;;;24.10;66.80;;;;;;4985071;28;89208;-84
2023/06/29 10:09:42;;;;;;;120.38;78.85;;;24.10;66.60;;;;;;4982571;28;88839;-83
2023/06/29 10:12:10;;;;;;;117.35;75.88;;;24.10;66.70;;;;;;4962641;28;91985;-83
2023/06/29 10:14:41;;;;;;;116.75;78.18;;;24.00;66.90;;;;;;4968976;28;93796;-85
2023/06/29 10:17:35;;;;;;;120.32;77.60;;;23.90;67.20;;;;;;4961254;28;90882;-84
2023/06/29 10:20:03;;;;;;;118.53;76.93;;;24.00;66.80;;;;;;4951891;28;89506;-84
2023/06/29 10:22:30;;;;;;;116.80;75.93;;;24.00;66.10;;;;;;4962015;28;93999;-84
2023/06/29 10:25:03;;;;;;;122.13;80.05;;;24.10;66.80;;;;;;4983520;28;91131;-83
2023/06/29 10:27:30;;;;;;;120.43;79.53;;;24.20;66.30;;;;;;4965924;28;90352;-83
2023/06/29 10:30:01;;;;;;;121.00;78.30;;;24.20;66.00;;;;;;4959226;28;89264;-85
2023/06/29 10:32:40;;;;;;;122.82;80.07;;;24.20;64.50;;;;;;4983053;28;93664;-82
2023/06/29 10:35:07;;;;;;;125.93;80.07;;;24.40;66.10;;;;;;4983246;28;89414;-83
2023/06/29 10:37:57;;;;;;;119.65;78.75;;;24.50;64.20;;;;;;4981404;28;90051;-83
2023/06/29 10:40:26;;;;;;;118.57;77.85;;;24.50;63.90;;;;;;4980886;28;89978;-84
2023/06/29 10:42:56;;;;;;;121.65;79.55;;;24.40;63.70;;;;;;4966402;28;92177;-85
2023/06/29 10:45:21;;;;;;;123.38;80.32;;;24.50;63.60;;;;;;4963544;28;96923;-85
2023/06/29 10:47:56;;;;;;;116.40;77.30;;;24.50;64.00;;;;;;4967437;28;89194;-85
2023/06/29 10:50:43;;;;;;;118.75;78.72;;;24.50;65.30;;;;;;4981415;28;90317;-86
2023/06/29 10:53:11;;;;;;;123.18;81.38;;;24.60;64.60;;;;;;4963214;28;92270;-85
2023/06/29 10:55:45;;;;;;;114.97;75.93;;;24.70;64.70;;;;;;4964306;28;92875;-83
2023/06/29 10:58:20;;;;;;;117.72;77.80;;;24.80;64.60;;;;;;4962290;28;93468;-86
2023/06/29 11:00:47;;;;;;;121.97;79.50;;;24.90;65.00;;;;;;4965270;28;90399;-85
2023/06/29 11:03:13;;;;;;;118.43;75.78;;;24.90;64.40;;;;;;4964797;28;93504;-85
2023/06/29 11:05:39;;;;;;;117.80;77.30;;;24.70;61.10;;;;;;4962823;28;91232;-85
2023/06/29 11:08:09;;;;;;;115.30;76.80;;;24.70;63.90;;;;;;4964525;28;90326;-84
2023/06/29 11:10:36;;;;;;;117.82;77.25;;;24.80;63.30;;;;;;4982284;28;89612;-85
2023/06/29 11:13:06;;;;;;;118.43;78.40;;;24.80;61.80;;;;;;4990560;28;91871;-84
2023/06/29 11:15:32;;;;;;;;;;;24.80;61.60;;;;;;4966818;28;92507;-86
2023/06/29 11:18:05;;;;;;;119.68;77.43;;;24.90;61.10;;;;;;4986353;28;89295;-84
2023/06/29 11:20:31;;;;;;;118.95;76.78;;;25.00;61.00;;;;;;4971547;28;89459;-85
2023/06/29 11:22:57;;;;;;;116.85;77.40;;;25.10;61.30;;;;;;4972758;28;93509;-85
2023/06/29 11:25:25;;;;;;;113.82;74.68;;;25.10;60.80;;;;;;4974689;28;93058;-86
2023/06/29 11:27:52;;;;;;;118.18;76.43;;;25.20;61.10;;;;;;4982687;28;89620;-85
2023/06/29 11:30:20;;;;;;;112.03;75.15;;;25.30;59.40;;;;;;4989793;28;88909;-84
2023/06/29 11:32:49;;;;;;;112.68;74.05;;;25.20;61.30;;;;;;4985251;28;90319;-85
2023/06/29 11:35:15;;;;;;;112.60;75.38;;;25.30;61.00;;;;;;4981025;28;90567;-85
2023/06/29 11:37:40;;;;;;;113.43;73.15;;;25.40;60.20;;;;;;4961708;28;89439;-84
2023/06/29 11:40:21;;;;;;;110.68;72.75;;;25.30;58.90;;;;;;4966088;28;89425;-85
2023/06/29 11:42:49;;;;;;;110.53;73.13;;;25.40;59.10;;;;;;4963926;28;93258;-85
2023/06/29 11:45:16;;;;;;;111.47;74.22;;;25.40;59.00;;;;;;4982239;28;89531;-84
2023/06/29 11:47:42;;;;;;;114.35;73.18;;;25.40;59.70;;;;;;4963399;28;92041;-86
2023/06/29 11:50:10;;;;;;;112.95;73.70;;;25.30;59.50;;;;;;4976098;28;90058;-85
2023/06/29 11:52:39;;;;;;;111.20;72.97;;;25.30;60.10;;;;;;4963952;28;95877;-85
2023/06/29 11:55:07;;;;;;;112.13;73.13;;;25.40;60.80;;;;;;4965914;28;92615;-84
2023/06/29 11:57:33;;;;;;;111.32;72.00;;;25.40;60.30;;;;;;4963636;28;90978;-85
2023/06/29 12:00:00;;;;;;;109.38;71.20;;;25.20;60.60;;;;;;4967860;28;90922;-86
2023/06/29 12:02:26;;;;;;;110.32;71.93;;;25.20;60.30;;;;;;4963551;28;92509;-85
2023/06/29 12:04:57;;;;;;;111.30;71.70;;;25.20;59.70;;;;;;4966546;28;92216;-85
2023/06/29 12:07:43;;;;;;;111.03;72.07;;;25.20;59.50;;;;;;4984869;28;91609;-85
2023/06/29 12:10:11;;;;;;;111.13;71.90;;;25.40;59.00;;;;;;4963073;28;91171;-85
2023/06/29 12:12:43;;;;;;;110.40;71.35;;;25.50;59.30;;;;;;4979638;28;89961;-84
2023/06/29 12:15:20;;;;;;;110.82;72.15;;;25.60;58.80;;;;;;4982262;28;89641;-84
2023/06/29 12:17:47;;;;;;;112.20;71.82;;;25.50;58.70;;;;;;4982354;28;91302;-85
2023/06/29 12:20:21;;;;;;;107.03;70.03;;;25.30;59.90;;;;;;4980269;28;89332;-84
2023/06/29 12:22:49;;;;;;;110.07;72.30;;;25.50;60.40;;;;;;4979296;28;95866;-84